Time;durP1;ratioP1;P1;durP2;ratioP2;P2;SDS_P1;SDS_P2;PMS_P1;PMS_P2;Temp;Humidity;BMP_temperature;BMP_pressure;BME280_temperature;BME280_humidity;BME280_pressure;Samples;Min_cycle;Max_cycle;Signal;HPM_P1;HPM_P2
2021/03/17 00:01:47;;;;;;;4.20;3.40;;;;;;;3.04;75.05;96890.63;5073010;28;20060;-73
2021/03/17 00:04:13;;;;;;;7.00;4.75;;;;;;;3.05;75.08;96888.84;5072850;28;20033;-73
2021/03/17 00:06:40;;;;;;;5.75;4.40;;;;;;;3.00;74.83;96884.16;5072814;28;20491;-73
2021/03/17 00:09:06;;;;;;;6.88;4.35;;;;;;;2.98;75.08;96883.50;5072737;28;20052;-72
2021/03/17 00:11:32;;;;;;;6.95;4.00;;;;;;;2.95;74.96;96883.81;5072915;28;20389;-72
2021/03/17 00:14:00;;;;;;;7.47;4.65;;;;;;;2.92;75.34;96881.53;5072980;28;20056;-72
2021/03/17 00:16:26;;;;;;;7.63;3.97;;;;;;;2.87;75.46;96870.03;5072810;28;20029;-72
2021/03/17 00:18:55;;;;;;;6.93;4.55;;;;;;;2.80;75.28;96875.84;5075579;28;20579;-73
2021/03/17 00:21:21;;;;;;;4.70;4.00;;;;;;;2.74;75.44;96876.47;5076541;28;20032;-72
2021/03/17 00:23:48;;;;;;;4.53;3.28;;;;;;;2.69;75.72;96876.16;5076915;28;20039;-72
2021/03/17 00:26:14;;;;;;;4.28;3.40;;;;;;;2.67;75.90;96877.25;5076489;28;20445;-72
2021/03/17 00:28:40;;;;;;;3.30;2.88;;;;;;;2.64;76.14;96875.78;5076683;28;20043;-72
2021/03/17 00:31:06;;;;;;;3.38;2.70;;;;;;;2.66;76.22;96876.44;5076450;28;20040;-73
2021/03/17 00:33:33;;;;;;;2.60;2.40;;;;;;;2.70;76.17;96871.75;5076528;28;20040;-72
2021/03/17 00:35:59;;;;;;;2.80;2.33;;;;;;;2.74;76.49;96875.66;5076262;28;20392;-72
2021/03/17 00:38:25;;;;;;;2.63;2.35;;;;;;;2.79;76.51;96869.06;5076689;28;20047;-72
2021/03/17 00:40:51;;;;;;;4.15;2.58;;;;;;;2.83;76.58;96867.78;5076298;28;20419;-72
2021/03/17 00:43:17;;;;;;;3.00;2.47;;;;;;;2.86;76.50;96869.22;5076504;28;20032;-72
2021/03/17 00:45:57;;;;;;;2.88;2.40;;;;;;;2.89;76.54;96875.84;5075916;28;20041;-72
2021/03/17 00:48:23;;;;;;;2.80;2.50;;;;;;;2.90;76.59;96865.34;5076285;28;20036;-72
2021/03/17 00:50:49;;;;;;;4.80;2.92;;;;;;;2.94;76.58;96863.22;5075564;28;20408;-72
2021/03/17 00:53:15;;;;;;;4.82;3.13;;;;;;;2.95;76.65;96865.66;5075780;28;20047;-73
2021/03/17 00:55:41;;;;;;;4.18;3.05;;;;;;;2.95;76.48;96865.66;5075883;28;20581;-72
2021/03/17 00:58:08;;;;;;;4.00;3.05;;;;;;;2.97;76.55;96863.72;5075954;28;20032;-72
2021/03/17 01:00:34;;;;;;;4.25;3.30;;;;;;;2.98;76.55;96857.59;5075749;28;20036;-73
2021/03/17 01:03:00;;;;;;;4.15;2.92;;;;;;;3.00;76.39;96857.41;5075497;28;20041;-73
2021/03/17 01:05:30;;;;;;;4.57;3.60;;;;;;;2.98;76.65;96849.81;5075369;28;20041;-72
2021/03/17 01:08:15;;;;;;;3.97;3.60;;;;;;;2.97;76.65;96845.59;5075990;28;20087;-72
2021/03/17 01:10:45;;;;;;;5.53;3.60;;;;;;;2.97;76.74;96842.19;5075606;28;20041;-72
2021/03/17 01:13:11;;;;;;;5.35;3.97;;;;;;;2.96;76.68;96843.16;5075624;28;20051;-72
2021/03/17 01:15:37;;;;;;;5.72;3.90;;;;;;;2.93;76.54;96841.69;5076216;28;20469;-72
2021/03/17 01:18:05;;;;;;;5.15;3.85;;;;;;;2.83;76.35;96841.03;5075348;28;20036;-72
2021/03/17 01:20:32;;;;;;;3.83;3.53;;;;;;;2.68;76.63;96838.25;5075761;28;20405;-72
2021/03/17 01:22:59;;;;;;;4.43;3.78;;;;;;;2.63;77.24;96835.34;5075249;28;20032;-72
2021/03/17 01:25:32;;;;;;;4.45;4.00;;;;;;;2.60;77.68;96839.06;5075123;28;20048;-72
2021/03/17 01:28:03;;;;;;;6.70;3.73;;;;;;;2.60;77.31;96838.22;5075701;28;20469;-72
2021/03/17 01:30:34;;;;;;;4.78;3.78;;;;;;;2.62;77.73;96831.13;5059869;28;20271;-72
2021/03/17 01:33:00;;;;;;;5.38;4.40;;;;;;;2.65;77.50;96830.81;5075078;28;20039;-72
2021/03/17 01:35:27;;;;;;;4.95;4.03;;;;;;;2.64;77.64;96826.59;5075298;28;20511;-72
2021/03/17 01:37:53;;;;;;;5.53;4.00;;;;;;;2.64;77.79;96821.41;5073837;28;20468;-72
2021/03/17 01:40:22;;;;;;;4.82;3.70;;;;;;;2.63;77.94;96822.41;5075310;28;20044;-73
2021/03/17 01:42:49;;;;;;;5.00;4.07;;;;;;;2.62;77.90;96820.75;5063027;28;20040;-72
2021/03/17 01:45:16;;;;;;;5.22;4.28;;;;;;;2.56;77.94;96817.03;5074896;28;20032;-72
2021/03/17 01:47:44;;;;;;;5.60;4.85;;;;;;;2.41;78.05;96810.84;5075297;28;20048;-72
2021/03/17 01:50:15;;;;;;;4.20;3.80;;;;;;;2.30;78.43;96819.69;5074877;28;20041;-72
2021/03/17 01:52:42;;;;;;;6.72;4.72;;;;;;;2.25;78.60;96814.19;5074660;28;20499;-72
2021/03/17 01:55:09;;;;;;;4.70;4.22;;;;;;;2.29;79.07;96812.91;5074912;28;20028;-72
2021/03/17 01:57:37;;;;;;;4.90;4.00;;;;;;;2.35;79.20;96824.41;5075144;28;20499;-72
2021/03/17 02:00:09;;;;;;;4.93;3.75;;;;;;;2.41;79.19;96816.00;5074585;28;20039;-72
2021/03/17 02:02:40;;;;;;;4.55;4.03;;;;;;;2.44;79.14;96816.50;5074742;28;20041;-73
2021/03/17 02:05:15;;;;;;;5.55;3.95;;;;;;;2.50;79.38;96825.44;5074476;28;20047;-72
2021/03/17 02:07:41;;;;;;;;;;;;;;;2.53;80.50;96814.75;5074901;28;20488;-72
2021/03/17 02:10:16;;;;;;;7.00;4.50;;;;;;;2.54;79.30;96820.72;5074405;28;19931;-72
2021/03/17 02:12:53;;;;;;;6.55;4.78;;;;;;;2.56;79.22;96821.38;5074576;28;20043;-72
2021/03/17 02:15:22;;;;;;;4.97;4.10;;;;;;;2.56;79.03;96817.03;5074254;28;20028;-73
2021/03/17 02:17:49;;;;;;;5.60;3.88;;;;;;;2.56;78.83;96824.81;5074015;28;20044;-72
2021/03/17 02:20:15;;;;;;;4.65;3.58;;;;;;;2.52;78.70;96813.16;5074185;28;20055;-73
2021/03/17 02:22:54;;;;;;;7.28;3.55;;;;;;;2.52;79.13;96817.50;5074251;28;20040;-72
2021/03/17 02:25:35;;;;;;;6.32;4.38;;;;;;;2.49;79.25;96817.81;5074168;28;20032;-72
2021/03/17 02:28:13;;;;;;;4.47;3.88;;;;;;;2.40;79.20;96822.97;5074059;28;20477;-72
2021/03/17 02:31:10;;;;;;;5.35;4.28;;;;;;;2.40;80.23;96817.78;5056180;28;20477;-72
2021/03/17 02:33:55;;;;;;;5.28;4.00;;;;;;;2.40;79.97;96820.38;5073763;28;20039;-72
2021/03/17 02:36:42;;;;;;;6.13;4.97;;;;;;;2.41;79.45;96816.00;5073756;28;20028;-72
2021/03/17 02:39:15;;;;;;;5.28;4.22;;;;;;;2.38;79.71;96824.91;5073775;28;20485;-72
2021/03/17 02:41:49;;;;;;;6.05;4.00;;;;;;;2.38;79.68;96817.13;5073996;28;20488;-72
2021/03/17 02:44:18;;;;;;;5.15;4.00;;;;;;;2.41;79.76;96809.03;5074159;28;20036;-72
2021/03/17 02:46:45;;;;;;;6.60;4.90;;;;;;;2.45;79.62;96825.09;5073564;28;20043;-72
2021/03/17 02:49:22;;;;;;;4.65;4.05;;;;;;;2.46;79.88;96828.47;5073975;28;20036;-72
2021/03/17 02:51:56;;;;;;;5.57;4.25;;;;;;;2.47;80.01;96825.75;5072795;28;20362;-72
2021/03/17 02:54:24;;;;;;;5.50;4.47;;;;;;;2.49;79.68;96817.81;5073664;28;20401;-72
2021/03/17 02:57:02;;;;;;;5.57;4.55;;;;;;;2.52;80.08;96815.75;5073864;28;20036;-72
2021/03/17 02:59:30;;;;;;;6.40;4.40;;;;;;;2.53;79.89;96809.56;5073715;28;20036;-72
2021/03/17 03:01:58;;;;;;;6.43;4.72;;;;;;;2.54;79.87;96815.56;5073596;28;20043;-72
2021/03/17 03:04:25;;;;;;;6.10;4.97;;;;;;;2.55;79.77;96809.44;5073574;28;20485;-72
2021/03/17 03:06:54;;;;;;;7.32;5.03;;;;;;;2.55;79.72;96805.06;5073302;28;20500;-72
2021/03/17 03:09:22;;;;;;;7.40;5.60;;;;;;;2.55;79.72;96804.25;5073537;28;20047;-72
2021/03/17 03:11:52;;;;;;;6.18;4.97;;;;;;;2.55;79.52;96807.63;5073379;28;20553;-72
2021/03/17 03:14:21;;;;;;;6.70;5.28;;;;;;;2.53;79.61;96808.78;5073182;28;20059;-72
2021/03/17 03:16:58;;;;;;;6.03;4.80;;;;;;;2.52;79.56;96807.13;5073502;28;20044;-72
2021/03/17 03:19:30;;;;;;;6.32;4.93;;;;;;;2.50;79.83;96809.06;5073435;28;20033;-72
2021/03/17 03:21:58;;;;;;;5.43;4.43;;;;;;;2.49;79.71;96810.06;5073455;28;20051;-72
2021/03/17 03:24:25;;;;;;;5.57;4.45;;;;;;;2.46;79.44;96800.84;5073092;28;20033;-72
2021/03/17 03:26:56;;;;;;;5.15;4.65;;;;;;;2.45;79.75;96806.97;5073255;28;20045;-72
2021/03/17 03:29:27;;;;;;;5.18;4.57;;;;;;;2.42;79.82;96797.75;5073293;28;20028;-72
2021/03/17 03:31:54;;;;;;;5.93;4.82;;;;;;;2.43;79.61;96803.72;5073622;28;20048;-72
2021/03/17 03:34:21;;;;;;;4.65;4.25;;;;;;;2.41;79.89;96800.47;5073367;28;20032;-72
2021/03/17 03:36:47;;;;;;;6.10;4.32;;;;;;;2.38;79.73;96805.97;5073261;28;20047;-72
2021/03/17 03:39:14;;;;;;;5.25;4.63;;;;;;;2.38;79.88;96804.19;5073116;28;20496;-72
2021/03/17 03:41:40;;;;;;;7.15;5.85;;;;;;;2.37;79.74;96805.19;5072936;28;20032;-72
2021/03/17 03:44:06;;;;;;;6.80;5.10;;;;;;;2.35;79.69;96819.22;5073202;28;20499;-73
2021/03/17 03:46:34;;;;;;;7.35;5.38;;;;;;;2.32;79.81;96809.19;5073054;28;20420;-72
2021/03/17 03:49:02;;;;;;;7.38;4.88;;;;;;;2.31;79.79;96810.16;5072855;28;20032;-72
2021/03/17 03:51:30;;;;;;;6.32;5.35;;;;;;;2.31;79.73;96807.56;5073154;28;20044;-72
2021/03/17 03:54:21;;;;;;;7.93;5.70;;;;;;;2.30;80.00;96806.75;5075696;28;20036;-72
2021/03/17 03:57:10;;;;;;;6.13;5.43;;;;;;;2.30;80.15;96814.53;5076924;28;20040;-72
2021/03/17 03:59:41;;;;;;;7.35;5.90;;;;;;;2.28;79.88;96798.34;5076605;28;20052;-72
2021/03/17 04:02:11;;;;;;;5.95;5.28;;;;;;;2.28;79.97;96815.66;5077059;28;20047;-72
2021/03/17 04:04:40;;;;;;;6.47;5.30;;;;;;;2.26;79.93;96818.38;5076900;28;20036;-72
2021/03/17 04:07:07;;;;;;;7.57;5.75;;;;;;;2.25;79.80;96824.53;5076943;28;20044;-73
2021/03/17 04:09:41;;;;;;;7.10;5.43;;;;;;;2.22;80.05;96825.63;5075675;28;20507;-72
2021/03/17 04:12:08;;;;;;;6.20;5.53;;;;;;;2.20;79.90;96832.75;5066272;28;20055;-72
2021/03/17 04:14:36;;;;;;;5.57;4.75;;;;;;;2.20;80.07;96832.75;5076282;28;20056;-72
2021/03/17 04:17:09;;;;;;;6.07;5.25;;;;;;;2.22;80.36;96830.81;5077162;28;20032;-72
2021/03/17 04:19:39;;;;;;;7.40;5.85;;;;;;;2.22;80.25;96832.59;5076531;28;20043;-72
2021/03/17 04:22:07;;;;;;;6.43;5.65;;;;;;;2.22;80.40;96833.41;5076420;28;20051;-72
2021/03/17 04:24:34;;;;;;;7.07;5.72;;;;;;;2.23;80.16;96839.41;5076198;28;20047;-72
2021/03/17 04:27:02;;;;;;;6.93;5.65;;;;;;;2.23;80.22;96831.66;5075784;28;20474;-72
2021/03/17 04:29:32;;;;;;;7.07;5.85;;;;;;;2.23;80.37;96834.25;5076833;28;20033;-72
2021/03/17 04:31:59;;;;;;;5.72;5.07;;;;;;;2.23;80.61;96826.47;5075728;28;20047;-72
2021/03/17 04:34:28;;;;;;;6.63;5.68;;;;;;;2.24;80.58;96836.66;5076462;28;20047;-72
2021/03/17 04:36:54;;;;;;;7.47;5.68;;;;;;;2.24;80.57;96834.06;5076636;28;20044;-72
2021/03/17 04:39:23;;;;;;;7.18;5.47;;;;;;;2.24;80.59;96826.31;5076233;28;20035;-72
2021/03/17 04:41:53;;;;;;;6.75;5.53;;;;;;;2.25;80.55;96827.13;5075919;28;20056;-72
2021/03/17 04:44:20;;;;;;;7.63;5.07;;;;;;;2.26;80.44;96830.53;5076196;28;20036;-72
2021/03/17 04:46:47;;;;;;;5.22;4.63;;;;;;;2.24;80.53;96836.66;5076356;28;20037;-72
2021/03/17 04:49:15;;;;;;;5.70;4.78;;;;;;;2.24;80.54;96830.66;5075965;28;20029;-72
2021/03/17 04:51:43;;;;;;;5.03;4.18;;;;;;;2.26;80.75;96830.53;5075896;28;20039;-72
2021/03/17 04:54:10;;;;;;;4.60;3.75;;;;;;;2.25;80.67;96832.31;5075947;28;20032;-72
2021/03/17 04:56:38;;;;;;;5.18;4.00;;;;;;;2.25;80.79;96842.66;5075626;28;20059;-72
2021/03/17 04:59:06;;;;;;;4.55;3.90;;;;;;;2.26;80.98;96836.50;5076261;28;20029;-72
2021/03/17 05:01:35;;;;;;;4.13;3.70;;;;;;;2.26;80.98;96840.88;5075669;28;20465;-72
2021/03/17 05:04:03;;;;;;;4.25;3.30;;;;;;;2.26;80.90;96836.50;5074983;28;20025;-72
2021/03/17 05:06:32;;;;;;;4.60;3.83;;;;;;;2.27;80.83;96838.13;5075258;28;20037;-72
2021/03/17 05:09:01;;;;;;;4.82;3.80;;;;;;;2.29;80.97;96845.72;5075594;28;20037;-72
2021/03/17 05:11:29;;;;;;;4.57;3.92;;;;;;;2.26;80.93;96841.69;5075660;28;20040;-72
2021/03/17 05:13:56;;;;;;;4.97;4.05;;;;;;;2.23;81.05;96839.41;5075657;28;20032;-72
2021/03/17 05:16:24;;;;;;;5.53;3.92;;;;;;;2.20;81.02;96832.75;5075618;28;20040;-72
2021/03/17 05:18:50;;;;;;;5.85;4.38;;;;;;;2.19;81.03;96840.69;5074925;28;20052;-72
2021/03/17 05:21:17;;;;;;;5.13;4.25;;;;;;;2.16;81.17;96839.22;5075916;28;20036;-72
2021/03/17 05:23:44;;;;;;;5.97;4.40;;;;;;;2.14;81.28;96843.75;5075231;28;20035;-72
2021/03/17 05:26:11;;;;;;;7.13;5.18;;;;;;;2.13;81.32;96849.06;5075235;28;20052;-72
2021/03/17 05:28:40;;;;;;;5.57;4.80;;;;;;;2.12;81.68;96844.84;5075448;28;20388;-72
2021/03/17 05:31:08;;;;;;;5.75;4.68;;;;;;;2.15;81.56;96847.13;5074615;28;20044;-72
2021/03/17 05:33:36;;;;;;;7.65;5.40;;;;;;;2.16;81.66;96853.91;5074503;28;20045;-72
2021/03/17 05:36:03;;;;;;;6.15;4.97;;;;;;;2.17;81.49;96852.97;5075384;28;20036;-72
2021/03/17 05:38:29;;;;;;;6.40;5.18;;;;;;;2.16;81.54;96849.59;5075015;28;20405;-72
2021/03/17 05:40:56;;;;;;;7.30;5.63;;;;;;;2.16;81.59;96854.75;5074842;28;20059;-72
2021/03/17 05:43:22;;;;;;;8.35;5.65;;;;;;;2.17;81.78;96855.56;5074912;28;20060;-72
2021/03/17 05:45:51;;;;;;;8.85;6.28;;;;;;;2.19;81.62;96858.81;5074621;28;20040;-72
2021/03/17 05:48:18;;;;;;;8.43;5.70;;;;;;;2.19;81.79;96863.97;5074652;28;20146;-72
2021/03/17 05:50:45;;;;;;;9.13;6.88;;;;;;;2.17;81.73;96866.72;5075221;28;20032;-72
2021/03/17 05:53:11;;;;;;;8.93;6.40;;;;;;;2.16;81.72;96870.28;5074459;28;20051;-72
2021/03/17 05:55:37;;;;;;;9.63;6.90;;;;;;;2.15;81.73;96862.66;5074692;28;20066;-72
2021/03/17 05:58:04;;;;;;;9.05;6.53;;;;;;;2.12;81.80;96868.97;5074758;28;20114;-72
2021/03/17 06:00:31;;;;;;;8.90;6.82;;;;;;;2.11;81.89;96882.03;5074312;28;20040;-72
2021/03/17 06:02:58;;;;;;;9.50;6.93;;;;;;;2.10;82.00;96883.00;5074974;28;20495;-72
2021/03/17 06:05:24;;;;;;;9.88;6.88;;;;;;;2.07;81.99;96873.78;5074158;28;20036;-72
2021/03/17 06:08:04;;;;;;;9.40;7.22;;;;;;;2.08;82.64;96877.16;5074213;28;20064;-72
2021/03/17 06:10:30;;;;;;;9.55;7.03;;;;;;;2.09;82.10;96874.44;5074524;28;20408;-72
2021/03/17 06:12:59;;;;;;;11.32;7.57;;;;;;;2.13;82.18;96874.94;5074037;28;20040;-72
2021/03/17 06:15:27;;;;;;;11.15;8.13;;;;;;;2.16;82.41;96877.22;5073724;28;20048;-73
2021/03/17 06:17:58;;;;;;;13.43;9.13;;;;;;;2.18;82.73;96870.09;5074141;28;20044;-72
2021/03/17 06:20:24;;;;;;;11.30;8.52;;;;;;;2.20;82.62;96883.69;5074028;28;20036;-72
2021/03/17 06:23:00;;;;;;;15.30;9.30;;;;;;;2.20;82.80;96887.09;5073282;28;20036;-72
2021/03/17 06:25:27;;;;;;;14.57;10.20;;;;;;;2.21;82.61;96885.34;5073946;28;20041;-73
2021/03/17 06:27:53;;;;;;;14.65;10.23;;;;;;;2.20;82.55;96892.25;5073937;28;20366;-72
2021/03/17 06:30:20;;;;;;;16.58;11.30;;;;;;;2.20;82.52;96884.50;5074109;28;20058;-72
2021/03/17 06:32:46;;;;;;;15.60;10.77;;;;;;;2.23;82.75;96893.75;5074203;28;20040;-72
2021/03/17 06:35:20;;;;;;;16.63;11.15;;;;;;;2.25;82.93;96891.81;5073498;28;20043;-73
2021/03/17 06:37:46;;;;;;;;;;;;;;;2.29;84.09;96882.78;5074536;28;20041;-72
2021/03/17 06:40:28;;;;;;;18.13;11.82;;;;;;;2.29;83.53;96894.91;5073565;28;19919;-72
2021/03/17 06:43:03;;;;;;;19.33;12.15;;;;;;;2.28;82.79;96904.44;5073451;28;20043;-72
2021/03/17 06:45:40;;;;;;;18.73;12.50;;;;;;;2.26;83.23;96901.19;5073956;28;20036;-72
2021/03/17 06:48:30;;;;;;;17.42;12.10;;;;;;;2.26;83.49;96895.22;5073738;28;20037;-72
2021/03/17 06:51:04;;;;;;;18.70;12.73;;;;;;;2.26;83.10;96908.97;5073890;28;20043;-73
2021/03/17 06:53:51;;;;;;;20.60;13.53;;;;;;;2.27;83.60;96902.84;5072272;28;20040;-72
2021/03/17 06:56:17;;;;;;;19.98;14.05;;;;;;;2.28;83.40;96909.63;5072316;28;20032;-73
2021/03/17 06:58:46;;;;;;;22.63;13.77;;;;;;;2.28;83.11;96911.41;5073762;28;20036;-72
2021/03/17 07:01:32;;;;;;;24.50;14.68;;;;;;;2.30;83.47;96918.03;5072800;28;20036;-73
2021/03/17 07:04:19;;;;;;;23.77;14.20;;;;;;;2.31;83.72;96924.03;5068175;28;20032;-73
2021/03/17 07:06:48;;;;;;;12.57;8.38;;;;;;;2.64;92.65;96924.97;5073500;28;20409;-72
2021/03/17 07:09:27;;;;;;;22.00;13.50;;;;;;;3.11;86.88;96929.69;5073362;28;20052;-73
2021/03/17 07:12:08;;;;;;;18.90;13.20;;;;;;;3.12;83.51;96920.13;5073371;28;20041;-73
2021/03/17 07:14:42;;;;;;;18.05;12.43;;;;;;;3.02;82.88;96920.25;5073493;28;20040;-73
2021/03/17 07:17:28;;;;;;;18.27;12.55;;;;;;;2.85;82.42;96929.75;5059027;28;20039;-73
2021/03/17 07:19:55;;;;;;;20.67;13.07;;;;;;;2.75;82.65;96926.47;5072791;28;20036;-73
2021/03/17 07:22:22;;;;;;;21.13;12.85;;;;;;;2.64;82.60;96930.16;5073773;28;20385;-72
2021/03/17 07:24:54;;;;;;;21.15;13.23;;;;;;;2.53;82.88;96939.03;5073279;28;20040;-72
2021/03/17 07:27:26;;;;;;;22.65;13.50;;;;;;;2.40;82.79;96944.63;5072122;28;20052;-73
2021/03/17 07:30:09;;;;;;;18.50;12.20;;;;;;;2.30;83.57;96961.22;5073491;28;20036;-72
2021/03/17 07:32:57;;;;;;;14.70;10.65;;;;;;;2.19;83.10;96957.94;5072962;28;20025;-72
2021/03/17 07:35:35;;;;;;;15.25;9.73;;;;;;;2.08;82.92;96960.78;5073068;28;20400;-73
2021/03/17 07:38:19;;;;;;;12.95;7.82;;;;;;;1.96;83.30;96967.97;5073111;28;20055;-72
2021/03/17 07:40:47;;;;;;;15.65;7.93;;;;;;;1.87;83.03;96970.63;5072942;28;20044;-73
2021/03/17 07:43:16;;;;;;;12.93;8.10;;;;;;;1.76;83.25;96969.09;5073423;28;20047;-72
2021/03/17 07:45:43;;;;;;;11.75;7.43;;;;;;;1.72;83.62;96972.94;5057067;28;20388;-73
2021/03/17 07:48:12;;;;;;;12.07;7.78;;;;;;;1.68;83.77;96975.03;5073061;28;20406;-72
2021/03/17 07:50:40;;;;;;;16.05;8.25;;;;;;;1.67;83.83;96978.56;5072931;28;20041;-72
2021/03/17 07:53:10;;;;;;;14.55;7.63;;;;;;;1.68;83.73;96979.38;5072654;28;20464;-72
2021/03/17 07:55:40;;;;;;;12.43;7.93;;;;;;;1.71;84.18;96979.09;5072688;28;20033;-72
2021/03/17 07:58:07;;;;;;;13.48;8.10;;;;;;;1.68;84.05;96977.63;5072713;28;20487;-72
2021/03/17 08:00:36;;;;;;;14.75;8.70;;;;;;;1.69;84.29;96979.22;5073106;28;20043;-73
2021/03/17 08:03:04;;;;;;;14.80;8.75;;;;;;;1.68;84.19;96977.63;5062896;28;20036;-72
2021/03/17 08:05:33;;;;;;;14.50;8.85;;;;;;;1.71;84.59;96971.34;5072629;28;20044;-72
2021/03/17 08:08:01;;;;;;;15.50;9.25;;;;;;;1.76;84.34;96966.50;5072271;28;20060;-72
2021/03/17 08:10:27;;;;;;;15.07;8.70;;;;;;;1.83;84.74;96968.34;5072814;28;20056;-72
2021/03/17 08:12:55;;;;;;;15.88;9.32;;;;;;;1.93;84.58;96963.09;5072980;28;20048;-72
2021/03/17 08:15:22;;;;;;;17.63;9.32;;;;;;;2.03;84.74;96968.97;5072569;28;20040;-72
2021/03/17 08:17:49;;;;;;;21.48;9.52;;;;;;;2.11;84.31;96967.44;5072434;28;20489;-72
2021/03/17 08:20:24;;;;;;;18.27;9.15;;;;;;;2.21;84.81;96973.31;5072581;28;20037;-72
2021/03/17 08:22:52;;;;;;;13.38;9.25;;;;;;;2.34;84.45;96975.50;5071408;28;20053;-72
2021/03/17 08:25:46;;;;;;;18.23;10.27;;;;;;;2.46;84.61;96981.19;5072392;28;20032;-73
2021/03/17 08:28:20;;;;;;;18.25;10.45;;;;;;;2.54;84.48;96976.91;5072638;28;20043;-72
2021/03/17 08:30:52;;;;;;;18.20;10.32;;;;;;;2.64;84.30;96975.00;5072434;28;20047;-72
2021/03/17 08:33:33;;;;;;;18.92;10.20;;;;;;;2.73;84.17;96973.28;5073166;28;20035;-72
2021/03/17 08:36:11;;;;;;;18.23;11.07;;;;;;;2.78;83.96;96970.22;5072094;28;20041;-72
2021/03/17 08:38:56;;;;;;;20.38;11.43;;;;;;;2.83;83.74;96968.78;5072811;28;20048;-72
2021/03/17 08:41:44;;;;;;;22.38;11.23;;;;;;;2.88;83.86;96965.72;5075866;28;20480;-72
2021/03/17 08:44:10;;;;;;;19.15;11.13;;;;;;;2.90;83.79;96963.78;5064472;28;20037;-72
2021/03/17 08:46:38;;;;;;;17.13;9.95;;;;;;;2.94;83.63;96970.28;5075771;28;20059;-72
2021/03/17 08:49:06;;;;;;;17.65;9.25;;;;;;;3.03;83.03;96971.13;5075872;28;20370;-72
2021/03/17 08:51:45;;;;;;;18.10;9.18;;;;;;;3.11;82.86;96981.50;5075839;28;20054;-73
2021/03/17 08:54:29;;;;;;;15.95;9.35;;;;;;;3.22;83.07;96983.00;5075829;28;20028;-72
2021/03/17 08:57:03;;;;;;;15.30;8.50;;;;;;;3.24;82.46;96989.63;5076161;28;20480;-73
2021/03/17 08:59:42;;;;;;;;;;;;;;;3.27;80.74;96983.31;5076227;28;20045;-72
2021/03/17 09:02:20;;;;;;;11.85;6.18;;;;;;;3.27;80.44;96988.50;5075532;28;19912;-73
2021/03/17 09:04:51;;;;;;;10.13;5.88;;;;;;;3.37;81.53;96988.38;5076138;28;20035;-73
2021/03/17 09:07:19;;;;;;;6.93;4.45;;;;;;;3.53;81.51;96982.38;5075520;28;20047;-73
2021/03/17 09:09:52;;;;;;;10.18;3.92;;;;;;;3.79;80.94;96983.06;5075430;28;20060;-73
2021/03/17 09:12:27;;;;;;;5.63;3.30;;;;;;;4.12;78.71;96983.06;5075833;28;20044;-73
2021/03/17 09:15:17;;;;;;;7.65;3.22;;;;;;;4.24;77.28;96981.75;5060813;28;20041;-73
2021/03/17 09:17:45;;;;;;;5.93;2.80;;;;;;;4.29;78.86;96977.88;5075094;28;20048;-73
2021/03/17 09:20:12;;;;;;;6.05;2.65;;;;;;;4.38;79.15;96971.66;5075450;28;20384;-73
2021/03/17 09:22:46;;;;;;;4.25;3.00;;;;;;;4.48;78.42;96978.28;5075676;28;20029;-73
2021/03/17 09:25:20;;;;;;;;;;;;;;;4.52;69.71;96968.38;5076029;28;20029;-73
2021/03/17 09:27:54;;;;;;;5.38;2.92;;;;;;;4.51;74.53;96966.75;5075256;28;19913;-73
2021/03/17 09:30:23;;;;;;;5.68;3.28;;;;;;;4.67;76.50;96960.72;5075247;28;20044;-73
2021/03/17 09:32:57;;;;;;;6.80;3.97;;;;;;;5.07;77.46;96964.94;5075555;28;20404;-73
2021/03/17 09:35:23;;;;;;;;;;;;;;;5.36;68.95;96960.06;5075517;28;20036;-73
2021/03/17 09:37:59;;;;;;;4.82;3.17;;;;;;;5.60;72.96;96957.28;5074948;28;19920;-73
2021/03/17 09:40:25;;;;;;;4.85;3.67;;;;;;;5.86;75.49;96956.16;5075569;28;20040;-73
2021/03/17 09:42:52;;;;;;;5.80;3.80;;;;;;;6.17;74.80;96956.03;5074685;28;20044;-73
2021/03/17 09:45:24;;;;;;;10.73;4.25;;;;;;;6.44;71.79;96953.84;5075157;28;20036;-73
2021/03/17 09:47:56;;;;;;;6.18;3.20;;;;;;;6.54;71.21;96941.34;5074879;28;20043;-73
2021/03/17 09:50:23;;;;;;;5.57;2.92;;;;;;;6.43;72.22;96949.63;5059129;28;20033;-73
2021/03/17 09:52:50;;;;;;;5.15;2.83;;;;;;;6.35;72.26;96947.09;5075171;28;20041;-73
2021/03/17 09:55:36;;;;;;;3.20;2.40;;;;;;;6.27;68.81;96942.78;5075234;28;20040;-73
2021/03/17 09:58:05;;;;;;;3.70;2.03;;;;;;;6.37;70.75;96952.94;5074807;28;20052;-73
2021/03/17 10:00:34;;;;;;;5.88;2.25;;;;;;;6.50;70.78;96960.94;5074829;28;20028;-73
2021/03/17 10:03:02;;;;;;;5.30;2.97;;;;;;;6.62;69.82;96958.72;5074461;28;20037;-73
2021/03/17 10:05:29;;;;;;;7.85;3.13;;;;;;;6.75;70.02;96966.69;5074791;28;20393;-73
2021/03/17 10:07:56;;;;;;;4.40;2.58;;;;;;;6.86;70.00;96965.41;5074591;28;20436;-73
2021/03/17 10:10:28;;;;;;;6.35;2.63;;;;;;;7.00;69.55;96956.78;5074356;28;20412;-73
2021/03/17 10:12:54;;;;;;;3.17;1.65;;;;;;;7.00;68.27;96951.56;5074467;28;20047;-73
2021/03/17 10:15:23;;;;;;;2.95;1.80;;;;;;;6.90;67.69;96951.84;5074260;28;20381;-73
2021/03/17 10:17:52;;;;;;;5.82;2.25;;;;;;;6.82;67.63;96954.53;5074836;28;20041;-73
2021/03/17 10:20:27;;;;;;;1.95;1.48;;;;;;;6.83;65.61;96945.75;5074170;28;20043;-73
2021/03/17 10:22:59;;;;;;;5.50;2.30;;;;;;;6.68;64.18;96939.75;5074631;28;20032;-73
2021/03/17 10:25:28;;;;;;;3.47;2.03;;;;;;;6.59;66.29;96952.03;5073825;28;20044;-73
2021/03/17 10:28:04;;;;;;;4.07;2.25;;;;;;;6.46;65.49;96946.66;5074125;28;20449;-73
2021/03/17 10:30:35;;;;;;;3.42;2.25;;;;;;;6.37;66.05;96940.72;5074760;28;20044;-73
2021/03/17 10:33:02;;;;;;;3.75;2.08;;;;;;;6.42;65.20;96934.97;5074579;28;20031;-73
2021/03/17 10:35:30;;;;;;;5.25;2.70;;;;;;;6.61;65.15;96926.59;5074001;28;20472;-73
2021/03/17 10:38:00;;;;;;;2.25;1.92;;;;;;;6.81;64.62;96923.47;5074060;28;20051;-73
2021/03/17 10:40:30;;;;;;;2.55;1.90;;;;;;;6.91;63.38;96914.34;5073733;28;20480;-73
2021/03/17 10:43:05;;;;;;;5.10;2.28;;;;;;;7.10;62.02;96915.56;5074083;28;20480;-74
2021/03/17 10:45:41;;;;;;;3.05;2.10;;;;;;;7.13;63.05;96910.97;5074434;28;20032;-73
2021/03/17 10:48:19;;;;;;;2.88;2.40;;;;;;;7.06;59.15;96895.25;5073803;28;20035;-73
2021/03/17 10:50:46;;;;;;;3.45;2.00;;;;;;;7.00;61.98;96915.06;5073911;28;20029;-73
2021/03/17 10:53:26;;;;;;;4.75;2.00;;;;;;;6.98;58.41;96890.16;5073943;28;20477;-73
2021/03/17 10:55:55;;;;;;;3.60;2.17;;;;;;;6.90;61.04;96906.72;5072447;28;20519;-73
2021/03/17 10:58:24;;;;;;;4.22;2.20;;;;;;;6.92;60.89;96912.56;5073689;28;20048;-74
2021/03/17 11:00:56;;;;;;;5.82;2.55;;;;;;;6.94;60.33;96902.75;5073760;28;20024;-73
2021/03/17 11:03:37;;;;;;;3.50;2.05;;;;;;;6.83;56.87;96862.31;5073017;28;20041;-74
2021/03/17 11:06:11;;;;;;;2.75;1.85;;;;;;;6.73;57.47;96876.63;5074053;28;20043;-73
2021/03/17 11:08:38;;;;;;;4.15;2.10;;;;;;;6.72;59.93;96891.47;5073247;28;20055;-73
2021/03/17 11:11:12;;;;;;;3.25;2.10;;;;;;;6.64;59.80;96889.78;5073492;28;20036;-73
2021/03/17 11:13:45;;;;;;;;;;;;;;;6.58;56.80;96855.81;5074044;28;20075;-73
2021/03/17 11:16:24;;;;;;;3.03;2.47;;;;;;;6.53;59.77;96892.84;5072976;28;19916;-73
2021/03/17 11:18:53;;;;;;;6.03;2.75;;;;;;;6.58;59.98;96889.69;5073303;28;20048;-74
2021/03/17 11:21:36;;;;;;;4.28;2.70;;;;;;;6.53;57.26;96863.34;5073355;28;20035;-73
2021/03/17 11:24:05;;;;;;;2.65;2.03;;;;;;;6.53;59.11;96882.44;5072707;28;20052;-73
2021/03/17 11:26:39;;;;;;;3.60;2.92;;;;;;;6.81;58.58;96864.31;5073131;28;20381;-73
2021/03/17 11:29:18;;;;;;;3.83;2.45;;;;;;;7.25;57.12;96841.69;5073664;28;20036;-73
2021/03/17 11:31:47;;;;;;;2.17;2.00;;;;;;;7.42;58.33;96850.06;5061300;28;20044;-73
2021/03/17 11:34:15;;;;;;;5.22;2.55;;;;;;;7.46;58.19;96852.09;5072954;28;20043;-73
2021/03/17 11:36:42;;;;;;;3.03;2.20;;;;;;;7.42;57.67;96847.44;5073469;28;20032;-73
2021/03/17 11:39:11;;;;;;;3.42;2.35;;;;;;;7.39;57.22;96839.97;5073200;28;20032;-73
2021/03/17 11:41:39;;;;;;;2.90;2.15;;;;;;;7.30;57.27;96828.88;5072692;28;20040;-73
2021/03/17 11:44:07;;;;;;;6.30;1.88;;;;;;;7.34;57.32;96834.53;5072608;28;20075;-73
2021/03/17 11:46:33;;;;;;;4.10;2.67;;;;;;;7.33;57.17;96828.50;5072803;28;20096;-73
2021/03/17 11:48:59;;;;;;;2.35;2.15;;;;;;;7.31;57.39;96833.91;5071407;28;20037;-73
2021/03/17 11:51:26;;;;;;;4.53;2.08;;;;;;;7.27;57.07;96824.03;5072763;28;20037;-73
2021/03/17 11:53:52;;;;;;;4.32;2.22;;;;;;;7.16;56.96;96824.53;5073285;28;20052;-73
2021/03/17 11:56:19;;;;;;;3.00;2.17;;;;;;;7.02;56.94;96834.03;5073191;28;20473;-73